Rosamond, Illinois
Current Conditions -  °F | °C
As of 6:35 AM on Monday 22 Dec 2014 (Local Time) from KTAZ Reporting Station
Moderate Rain Moderate Rain  
Wind Chill: 26°   Ceiling: 3600
Heat Index: 34°   Visibility: 5mi
Dew Point: 32°   Wind: 9mph
Humidity: 93%   Direction: 120°ESE
Pressure: 29.84"   Gusts: NA
Location:  39.38°N, 89.16°W
Report Text: KTAZ 221235Z AUTO 12008KT 5SM RA BKN036 OVC046 01/00 A2984 RMK AO2
Loading
Personal Weather Stations






























Interactive Weather Map New forecast layout! Learn more

10-Day Weather Forecast

Advertisements
Track Severe Weather on mobile